Kazime Ana — TCPT8 — position and weather

sailwx.info

Track history (hours):
 
Tides and Currents Weather Stations Pressure Air Temp Water Temp Dewpoint Dewpoint Depression Visibility Wind Speed Wind Dir Waves Ship Positions

Kazime Ana

Last reported at 2017-Apr-28 23:29 UTC. Time now 2017-Apr-28 23:41 UTC.
Position N 40°29' E 027°05'.

Length 115 m; draft 6.9 m.

Type: Cargo ship. MMSI: 271001019.

Date/timePositionNaut miles runAvg speedWind from/ knotsBaromVisibWave heightAir tempDewpointWater temp
2017-Apr-28 23:29N 40°29' E 027°05'7 9.2
2017-Apr-28 22:45N 40°28' E 026°56'2 9.1
2017-Apr-28 22:30N 40°27' E 026°53'5 9.1
2017-Apr-28 21:59N 40°26' E 026°47'5 8.8
2017-Apr-28 21:27N 40°24' E 026°42'7 9.0
2017-Apr-28 20:40N 40°18' E 026°36'2 8.9
2017-Apr-28 20:29N 40°17' E 026°34'4 9.0
2017-Apr-28 19:59N 40°14' E 026°30'5 8.4
2017-Apr-28 19:20N 40°12' E 026°23'11 8.3
2017-Apr-28 18:04N 40°02' E 026°17'1 9.3
2017-Apr-28 17:58N 40°02' E 026°16'4 8.6
2017-Apr-28 17:30N 40°01' E 026°11'4 8.5
2017-Apr-28 16:59N 39°57' E 026°09'4 8.5
2017-Apr-28 16:30N 39°53' E 026°09'0 0.3
2017-Apr-28 16:00N 39°53' E 026°09'0 0.0
2017-Apr-28 15:11N 39°53' E 026°09'0 0.0
2017-Apr-28 15:00N 39°53' E 026°09'0 0.0
2017-Apr-28 14:28N 39°53' E 026°09'0 0.0
2017-Apr-28 09:35N 39°53' E 026°09'0 0.0
2017-Apr-28 09:21N 39°53' E 026°09'0 0.0
2017-Apr-28 08:29N 39°53' E 026°09'0 0.0
2017-Apr-28 07:50N 39°53' E 026°09'0 0.0
2017-Apr-28 04:32N 39°53' E 026°09'0 0.1
2017-Apr-28 04:27N 39°53' E 026°09'0 0.0
2017-Apr-28 03:56N 39°53' E 026°09'0 0.0
2017-Apr-28 03:21N 39°53' E 026°09'0 0.0
2017-Apr-28 02:50N 39°53' E 026°09'0 0.0
2017-Apr-28 02:30N 39°53' E 026°09'0 0.0
2017-Apr-28 01:59N 39°53' E 026°09'0 0.0
2017-Apr-28 01:20N 39°53' E 026°09'0 0.0
2017-Apr-28 01:00N 39°53' E 026°09'0 0.0
2017-Apr-28 00:29N 39°53' E 026°09'0 0.0
2017-Apr-27 23:55N 39°53' E 026°09'0 0.0
2017-Apr-27 23:02N 39°53' E 026°09'0 0.0
2017-Apr-27 22:59N 39°53' E 026°09'0 0.0
2017-Apr-27 22:21N 39°53' E 026°09'0 0.0
2017-Apr-27 21:38N 39°53' E 026°09'0 0.0
2017-Apr-27 21:02N 39°53' E 026°09'0 0.0
2017-Apr-27 20:57N 39°53' E 026°09'0 0.0
2017-Apr-27 20:11N 39°53' E 026°09'0 0.0
2017-Apr-27 19:58N 39°53' E 026°09'  
Track history (hours):
 
Tides and Currents Weather Stations Pressure Air Temp Water Temp Dewpoint Dewpoint Depression Visibility Wind Speed Wind Dir Waves Ship Positions

Kazime Ana

Last reported at 2017-Apr-28 23:29 UTC. Time now 2017-Apr-28 23:41 UTC.
Position N 40°29' E 027°05'.

Length 115 m; draft 6.9 m.

Type: Cargo ship. MMSI: 271001019.

Date/timePositionNaut miles runAvg speedWind from/ knotsBaromVisibWave heightAir tempDewpointWater temp
2017-Apr-28 23:29N 40°29' E 027°05'7 9.2
2017-Apr-28 22:45N 40°28' E 026°56'2 9.1
2017-Apr-28 22:30N 40°27' E 026°53'5 9.1
2017-Apr-28 21:59N 40°26' E 026°47'5 8.8
2017-Apr-28 21:27N 40°24' E 026°42'7 9.0
2017-Apr-28 20:40N 40°18' E 026°36'2 8.9
2017-Apr-28 20:29N 40°17' E 026°34'4 9.0
2017-Apr-28 19:59N 40°14' E 026°30'5 8.4
2017-Apr-28 19:20N 40°12' E 026°23'11 8.3
2017-Apr-28 18:04N 40°02' E 026°17'1 9.3
2017-Apr-28 17:58N 40°02' E 026°16'4 8.6
2017-Apr-28 17:30N 40°01' E 026°11'4 8.5
2017-Apr-28 16:59N 39°57' E 026°09'4 8.5
2017-Apr-28 16:30N 39°53' E 026°09'0 0.3
2017-Apr-28 16:00N 39°53' E 026°09'0 0.0
2017-Apr-28 15:11N 39°53' E 026°09'0 0.0
2017-Apr-28 15:00N 39°53' E 026°09'0 0.0
2017-Apr-28 14:28N 39°53' E 026°09'0 0.0
2017-Apr-28 09:35N 39°53' E 026°09'0 0.0
2017-Apr-28 09:21N 39°53' E 026°09'0 0.0
2017-Apr-28 08:29N 39°53' E 026°09'0 0.0
2017-Apr-28 07:50N 39°53' E 026°09'0 0.0
2017-Apr-28 04:32N 39°53' E 026°09'0 0.1
2017-Apr-28 04:27N 39°53' E 026°09'0 0.0
2017-Apr-28 03:56N 39°53' E 026°09'0 0.0
2017-Apr-28 03:21N 39°53' E 026°09'0 0.0
2017-Apr-28 02:50N 39°53' E 026°09'0 0.0
2017-Apr-28 02:30N 39°53' E 026°09'0 0.0
2017-Apr-28 01:59N 39°53' E 026°09'0 0.0
2017-Apr-28 01:20N 39°53' E 026°09'0 0.0
2017-Apr-28 01:00N 39°53' E 026°09'0 0.0
2017-Apr-28 00:29N 39°53' E 026°09'0 0.0
2017-Apr-27 23:55N 39°53' E 026°09'0 0.0
2017-Apr-27 23:02N 39°53' E 026°09'0 0.0
2017-Apr-27 22:59N 39°53' E 026°09'0 0.0
2017-Apr-27 22:21N 39°53' E 026°09'0 0.0
2017-Apr-27 21:38N 39°53' E 026°09'0 0.0
2017-Apr-27 21:02N 39°53' E 026°09'0 0.0
2017-Apr-27 20:57N 39°53' E 026°09'0 0.0
2017-Apr-27 20:11N 39°53' E 026°09'0 0.0
2017-Apr-27 19:58N 39°53' E 026°09'  

Dump ship's entire track history